Time,TemperatureF,DewpointF,PressureIn,WindDirection,WindDirectionDegrees,WindSpeedMPH,WindSpeedGustMPH,Humidity,HourlyPrecipIn,Conditions,Clouds,dailyrainin,SoftwareType,DateUTC
2013-02-19 00:00:00,13.5,7.6,29.53,WSW,248,1.8,9.4,77,0.00,,SKC,0.00,VWS V14.01,2013-02-19 06:00:00,
2013-02-19 00:20:00,12.7,6.9,29.53,NNW,338,5.7,10.6,77,0.00,,SKC,0.00,VWS V14.01,2013-02-19 06:20:00,
2013-02-19 00:40:00,11.7,5.9,29.53,NNW,338,3.6,13.7,77,0.00,,SKC,0.00,VWS V14.01,2013-02-19 06:40:00,
2013-02-19 01:00:00,10.9,5.2,29.53,NNW,338,5.4,9.8,77,0.00,,SKC,0.00,VWS V14.01,2013-02-19 07:00:00,
2013-02-19 01:20:00,10.2,4.5,29.53,SSW,202,0.0,19.2,77,0.00,,SKC,0.00,VWS V14.01,2013-02-19 07:20:00,
2013-02-19 01:40:00,9.7,3.9,29.56,NNW,338,4.1,10.2,77,0.00,,SKC,0.00,VWS V14.01,2013-02-19 07:40:00,
2013-02-19 02:00:00,9.1,3.4,29.56,NNW,338,4.9,9.4,77,0.00,,SKC,0.00,VWS V14.01,2013-02-19 08:00:00,
2013-02-19 02:20:00,8.8,3.1,29.56,NNW,338,7.5,11.4,77,0.00,,SKC,0.00,VWS V14.01,2013-02-19 08:20:00,
2013-02-19 02:40:00,8.2,2.5,29.56,NNW,338,8.5,12.9,77,0.00,,SKC,0.00,VWS V14.01,2013-02-19 08:40:00,
2013-02-19 03:00:00,7.5,1.8,29.59,NNW,338,6.4,12.9,77,0.00,,SKC,0.00,VWS V14.01,2013-02-19 09:00:00,
2013-02-19 03:20:00,7.0,1.3,29.59,WNW,292,1.8,12.5,77,0.00,,SKC,0.00,VWS V14.01,2013-02-19 09:20:00,
2013-02-19 03:40:00,6.4,0.8,29.59,ESE,112,0.0,11.0,77,0.00,,SKC,0.00,VWS V14.01,2013-02-19 09:40:00,
2013-02-19 04:00:00,5.9,0.3,29.59,NW,315,3.9,13.3,77,0.00,,SKC,0.00,VWS V14.01,2013-02-19 10:00:00,
2013-02-19 04:20:00,5.2,-0.4,29.59,WNW,292,4.1,14.1,77,0.00,,SKC,0.00,VWS V14.01,2013-02-19 10:20:00,
2013-02-19 04:40:00,4.8,-0.8,29.62,WNW,292,4.9,11.0,77,0.00,,SKC,0.00,VWS V14.01,2013-02-19 10:40:00,
2013-02-19 05:00:00,4.1,-1.5,29.62,WSW,248,2.8,11.0,77,0.00,,SKC,0.00,VWS V14.01,2013-02-19 11:00:00,
2013-02-19 05:20:00,2.8,-2.7,29.62,NE,45,4.1,13.3,77,0.00,,SKC,0.00,VWS V14.01,2013-02-19 11:20:00,
2013-02-19 05:40:00,2.1,-3.4,29.62,NNW,338,3.1,12.5,77,0.00,,SKC,0.00,VWS V14.01,2013-02-19 11:40:00,
2013-02-19 06:00:00,1.6,-4.0,29.62,NNW,338,3.3,17.2,77,0.00,,SKC,0.00,VWS V14.01,2013-02-19 12:00:00,
2013-02-19 06:40:00,0.3,-5.2,29.68,NNW,338,2.8,14.9,77,0.00,,SKC,0.00,VWS V14.01,2013-02-19 12:40:00,
2013-02-19 07:00:00,-0.6,-6.1,29.68,NNW,338,6.4,13.3,77,0.00,,SKC,0.00,VWS V14.01,2013-02-19 13:00:00,
2013-02-19 07:20:00,-1.3,-6.8,29.71,West,270,5.7,13.3,77,0.00,,SKC,0.00,VWS V14.01,2013-02-19 13:20:00,
2013-02-19 07:40:00,-1.7,-7.1,29.71,NW,315,3.1,12.9,77,0.00,,SKC,0.00,VWS V14.01,2013-02-19 13:40:00,
2013-02-19 08:00:00,-1.8,-7.3,29.74,NNE,22,3.9,9.8,77,0.00,,SKC,0.00,VWS V14.01,2013-02-19 14:00:00,
2013-02-19 08:20:00,-2.2,-7.6,29.74,NW,315,3.1,11.0,77,0.00,,SKC,0.00,VWS V14.01,2013-02-19 14:20:00,
2013-02-19 08:40:00,-2.2,-7.6,29.74,NNW,338,3.6,12.5,77,0.00,,SKC,0.00,VWS V14.01,2013-02-19 14:40:00,
2013-02-19 09:00:00,-2.0,-7.4,29.74,NW,315,8.0,13.3,77,0.00,,SKC,0.00,VWS V14.01,2013-02-19 15:00:00,
2013-02-19 09:20:00,-1.3,-6.8,29.74,SW,225,1.3,14.1,77,0.00,,SKC,0.00,VWS V14.01,2013-02-19 15:20:00,
2013-02-19 09:40:00,0.0,-5.5,29.76,WNW,292,2.3,12.5,77,0.00,,SKC,0.00,VWS V14.01,2013-02-19 15:40:00,
2013-02-19 10:00:00,0.3,-5.2,29.76,WNW,292,3.1,18.8,77,0.00,,SKC,0.00,VWS V14.01,2013-02-19 16:00:00,
2013-02-19 10:20:00,1.0,-4.5,29.76,NNE,22,2.6,14.1,77,0.00,,SKC,0.00,VWS V14.01,2013-02-19 16:20:00,
2013-02-19 10:40:00,1.9,-3.6,29.76,WNW,292,4.6,15.3,77,0.00,,SKC,0.00,VWS V14.01,2013-02-19 16:40:00,
2013-02-19 11:00:00,3.2,-2.4,29.79,SSW,202,3.3,14.9,77,0.00,,SKC,0.00,VWS V14.01,2013-02-19 17:00:00,
2013-02-19 11:20:00,3.9,-1.7,29.79,WNW,292,3.3,14.9,77,0.00,,SKC,0.00,VWS V14.01,2013-02-19 17:20:00,
2013-02-19 11:40:00,4.1,-1.5,29.79,South,180,4.9,11.0,77,0.00,,SKC,0.00,VWS V14.01,2013-02-19 17:40:00,
2013-02-19 12:00:00,5.0,-0.6,29.79,NNW,338,3.6,11.0,77,0.00,,SKC,0.00,VWS V14.01,2013-02-19 18:00:00,
2013-02-19 12:20:00,5.0,-0.6,29.79,NNW,338,3.9,13.7,77,0.00,,SKC,0.00,VWS V14.01,2013-02-19 18:20:00,
2013-02-19 12:40:00,6.1,0.4,29.79,NW,315,3.3,15.3,77,0.00,,SKC,0.00,VWS V14.01,2013-02-19 18:40:00,
2013-02-19 13:00:00,6.1,0.4,29.79,NW,315,2.8,13.7,77,0.00,,SKC,0.00,VWS V14.01,2013-02-19 19:00:00,
2013-02-19 13:20:00,7.2,1.5,29.82,SE,135,2.3,9.4,77,0.00,,SKC,0.00,VWS V14.01,2013-02-19 19:20:00,
2013-02-19 13:40:00,7.5,1.8,29.82,SW,225,3.6,10.2,77,0.00,,SKC,0.00,VWS V14.01,2013-02-19 19:40:00,
2013-02-19 14:00:00,7.2,1.5,29.82,NW,315,2.6,16.8,77,0.00,,SKC,0.00,VWS V14.01,2013-02-19 20:00:00,
2013-02-19 14:20:00,8.6,2.9,29.82,NNW,338,4.9,11.0,77,0.00,,SKC,0.00,VWS V14.01,2013-02-19 20:20:00,
2013-02-19 14:40:00,8.1,2.4,29.85,WNW,292,5.7,14.9,77,0.00,,SKC,0.00,VWS V14.01,2013-02-19 20:40:00,
2013-02-19 15:00:00,8.4,2.7,29.85,NNW,338,1.5,13.7,77,0.00,,SKC,0.00,VWS V14.01,2013-02-19 21:00:00,
2013-02-19 15:20:00,7.0,1.3,29.85,NNW,338,4.9,14.1,77,0.00,,SKC,0.00,VWS V14.01,2013-02-19 21:20:00,
2013-02-19 15:40:00,7.5,1.8,29.85,East,90,7.5,14.1,77,0.00,,SKC,0.00,VWS V14.01,2013-02-19 21:40:00,
2013-02-19 16:00:00,6.8,1.1,29.88,NNW,338,4.9,11.4,77,0.00,,SKC,0.00,VWS V14.01,2013-02-19 22:00:00,
2013-02-19 16:20:00,6.4,0.8,29.88,WNW,292,3.9,11.4,77,0.00,,SKC,0.00,VWS V14.01,2013-02-19 22:20:00,
2013-02-19 16:40:00,6.1,0.4,29.91,WNW,292,6.4,13.7,77,0.00,,SKC,0.00,VWS V14.01,2013-02-19 22:40:00,
2013-02-19 17:00:00,5.9,0.3,29.91,SW,225,4.1,11.4,77,0.00,,SKC,0.00,VWS V14.01,2013-02-19 23:00:00,
2013-02-19 17:20:00,5.7,0.1,29.94,SSW,202,1.5,11.0,77,0.00,,SKC,0.00,VWS V14.01,2013-02-19 23:20:00,
2013-02-19 17:40:00,5.4,-0.3,29.94,WNW,292,4.4,9.8,77,0.00,,SKC,0.00,VWS V14.01,2013-02-19 23:40:00,
2013-02-19 18:00:00,5.0,-0.6,29.94,WSW,248,2.8,14.9,77,0.00,,SKC,0.00,VWS V14.01,2013-02-20 00:00:00,
2013-02-19 18:20:00,4.8,-0.8,29.97,WNW,292,0.0,11.0,77,0.00,,SKC,0.00,VWS V14.01,2013-02-20 00:20:00,
2013-02-19 18:40:00,4.3,-1.3,29.97,NNW,338,2.3,7.4,77,0.00,,SKC,0.00,VWS V14.01,2013-02-20 00:40:00,
2013-02-19 19:00:00,4.1,-1.5,29.97,East,90,6.4,9.8,77,0.00,,SKC,0.00,VWS V14.01,2013-02-20 01:00:00,
2013-02-19 19:20:00,4.5,-1.1,30.00,WNW,292,1.8,10.2,77,0.00,,SKC,0.00,VWS V14.01,2013-02-20 01:20:00,
2013-02-19 19:40:00,4.5,-1.1,30.00,SSW,202,2.3,8.2,77,0.00,,SKC,0.00,VWS V14.01,2013-02-20 01:40:00,
2013-02-19 20:00:00,4.5,-1.1,30.00,WNW,292,3.1,11.0,77,0.00,,SKC,0.00,VWS V14.01,2013-02-20 02:00:00,
2013-02-19 20:20:00,4.1,-1.5,30.03,WSW,248,4.9,10.2,77,0.00,,SKC,0.00,VWS V14.01,2013-02-20 02:20:00,
2013-02-19 20:40:00,4.1,-1.5,30.03,NNW,338,5.7,9.4,77,0.00,,SKC,0.00,VWS V14.01,2013-02-20 02:40:00,
2013-02-19 21:00:00,4.1,-1.5,30.03,WNW,292,1.8,8.6,77,0.00,,SKC,0.00,VWS V14.01,2013-02-20 03:00:00,
2013-02-19 21:20:00,4.1,-1.5,30.06,WSW,248,1.8,7.4,77,0.00,,SKC,0.00,VWS V14.01,2013-02-20 03:20:00,
2013-02-19 21:40:00,4.1,-1.5,30.03,South,180,1.5,6.7,77,0.00,,SKC,0.00,VWS V14.01,2013-02-20 03:40:00,
2013-02-19 22:00:00,4.1,-1.5,30.03,NNW,338,1.0,6.3,77,0.00,,SKC,0.00,VWS V14.01,2013-02-20 04:00:00,
2013-02-19 22:20:00,4.1,-1.5,30.06,NNW,338,1.5,7.0,77,0.00,,SKC,0.00,VWS V14.01,2013-02-20 04:20:00,
2013-02-19 22:40:00,4.1,-1.5,30.06,NNW,338,1.5,10.2,77,0.00,,SKC,0.00,VWS V14.01,2013-02-20 04:40:00,
2013-02-19 23:00:00,4.1,-1.5,30.06,SSW,202,1.8,7.0,77,0.00,,SKC,0.00,VWS V14.01,2013-02-20 05:00:00,
2013-02-19 23:20:00,4.5,-1.1,30.06,West,270,2.6,7.4,77,0.00,,SKC,0.00,VWS V14.01,2013-02-20 05:20:00,
2013-02-19 23:40:00,4.5,-1.1,30.06,ENE,68,1.3,10.2,77,0.00,,SKC,0.00,VWS V14.01,2013-02-20 05:40:00,